createdAt,value
2023-09-27T00:01:14.898Z,7.45
2023-09-27T00:03:43.617Z,7.75
2023-09-27T00:06:10.741Z,7.70
2023-09-27T00:08:37.581Z,7.45
2023-09-27T00:11:04.943Z,7.57
2023-09-27T00:13:31.934Z,7.15
2023-09-27T00:15:58.889Z,6.90
2023-09-27T00:18:25.959Z,6.82
2023-09-27T00:20:53.362Z,6.82
2023-09-27T00:23:20.242Z,7.25
2023-09-27T00:25:47.045Z,7.43
2023-09-27T00:28:13.767Z,7.57
2023-09-27T00:30:40.721Z,7.35
2023-09-27T00:33:08.428Z,7.18
2023-09-27T00:35:35.475Z,7.60
2023-09-27T00:38:03.394Z,6.50
2023-09-27T00:40:30.963Z,7.10
2023-09-27T00:42:58.508Z,6.70
2023-09-27T00:45:25.468Z,7.63
2023-09-27T00:47:53.965Z,7.00
2023-09-27T00:50:21.133Z,7.38
2023-09-27T00:52:49.554Z,7.00
2023-09-27T00:55:21.150Z,6.82
2023-09-27T00:57:50.544Z,6.60
2023-09-27T01:00:19.158Z,7.40
2023-09-27T01:02:46.220Z,6.88
2023-09-27T01:05:14.128Z,6.50
2023-09-27T01:07:41.700Z,6.32
2023-09-27T01:10:09.733Z,6.72
2023-09-27T01:12:38.872Z,7.30
2023-09-27T01:15:07.828Z,7.20
2023-09-27T01:17:36.543Z,7.17
2023-09-27T01:20:04.381Z,7.00
2023-09-27T01:22:31.134Z,7.72
2023-09-27T01:24:59.151Z,6.60
2023-09-27T01:27:26.132Z,6.95
2023-09-27T01:29:52.921Z,6.90
2023-09-27T01:32:20.467Z,6.40
2023-09-27T01:34:47.326Z,7.72
2023-09-27T01:37:14.323Z,7.00
2023-09-27T01:39:41.263Z,7.25
2023-09-27T01:42:09.824Z,7.97
2023-09-27T01:44:36.611Z,7.78
2023-09-27T01:47:03.532Z,7.78
2023-09-27T01:49:30.333Z,9.00
2023-09-27T01:51:57.131Z,8.05
2023-09-27T01:54:23.916Z,8.90
2023-09-27T01:56:50.836Z,8.70
2023-09-27T01:59:17.655Z,9.00
2023-09-27T02:01:44.546Z,9.63
2023-09-27T02:04:11.435Z,9.07
2023-09-27T02:06:38.296Z,10.02
2023-09-27T02:09:05.377Z,9.18
2023-09-27T02:11:32.423Z,8.80
2023-09-27T02:13:59.522Z,8.82
2023-09-27T02:16:26.553Z,8.85
2023-09-27T02:18:58.066Z,8.77
2023-09-27T02:21:24.919Z,8.82
2023-09-27T02:23:52.073Z,8.07
2023-09-27T02:26:18.886Z,8.20
2023-09-27T02:28:45.792Z,8.27
2023-09-27T02:31:13.827Z,8.07
2023-09-27T02:33:40.800Z,7.70
2023-09-27T02:36:07.794Z,7.93
2023-09-27T02:38:37.414Z,7.60
2023-09-27T02:41:05.352Z,7.43
2023-09-27T02:43:32.452Z,7.50
2023-09-27T02:45:59.661Z,7.22
2023-09-27T02:48:26.732Z,7.45
2023-09-27T02:50:53.899Z,7.65
2023-09-27T02:53:21.232Z,6.63
2023-09-27T02:55:48.752Z,7.47
2023-09-27T02:58:16.762Z,7.57
2023-09-27T03:00:43.967Z,8.35
2023-09-27T03:03:11.208Z,7.03
2023-09-27T03:05:38.533Z,7.68
2023-09-27T03:08:06.049Z,7.30
2023-09-27T03:10:32.972Z,6.85
2023-09-27T03:13:00.203Z,7.97
2023-09-27T03:15:27.373Z,8.18
2023-09-27T03:17:55.223Z,7.82
2023-09-27T03:20:23.153Z,7.32
2023-09-27T03:22:50.551Z,7.28
2023-09-27T03:25:20.744Z,7.65
2023-09-27T03:27:48.257Z,7.75
2023-09-27T03:30:17.547Z,7.47
2023-09-27T03:32:44.857Z,8.07
2023-09-27T03:35:11.797Z,7.65
2023-09-27T03:37:39.014Z,7.85
2023-09-27T03:40:15.046Z,7.80
2023-09-27T03:42:46.801Z,7.07
2023-09-27T03:45:17.155Z,7.45
2023-09-27T03:47:46.789Z,7.40
2023-09-27T03:50:18.242Z,7.60
2023-09-27T03:52:45.340Z,7.70
2023-09-27T03:55:13.157Z,7.78
2023-09-27T03:57:43.083Z,7.80
2023-09-27T04:00:18.369Z,8.25
2023-09-27T04:02:48.248Z,7.90
2023-09-27T04:05:16.566Z,7.60
2023-09-27T04:07:43.618Z,7.80
2023-09-27T04:10:11.102Z,7.63
2023-09-27T04:12:38.705Z,8.15
2023-09-27T04:15:15.169Z,8.43
2023-09-27T04:17:42.198Z,8.00
2023-09-27T04:20:20.118Z,7.82
2023-09-27T04:22:48.880Z,8.43
2023-09-27T04:25:16.772Z,7.40
2023-09-27T04:27:47.151Z,7.93
2023-09-27T04:30:15.488Z,7.90
2023-09-27T04:32:47.005Z,7.90
2023-09-27T04:35:14.810Z,7.93
2023-09-27T04:37:42.642Z,8.93
2023-09-27T04:40:12.772Z,8.05
2023-09-27T04:42:43.490Z,7.70
2023-09-27T04:45:12.323Z,7.45
2023-09-27T04:47:40.990Z,7.87
2023-09-27T04:50:11.808Z,7.47
2023-09-27T04:52:39.890Z,8.27
2023-09-27T04:55:08.536Z,7.72
2023-09-27T04:57:35.995Z,7.35
2023-09-27T05:00:05.259Z,7.45
2023-09-27T05:02:32.324Z,7.47
2023-09-27T05:04:59.448Z,8.40
2023-09-27T05:07:26.311Z,8.65
2023-09-27T05:09:53.214Z,7.95
2023-09-27T05:12:19.988Z,7.78
2023-09-27T05:14:46.659Z,7.32
2023-09-27T05:17:13.591Z,7.97
2023-09-27T05:19:40.446Z,7.28
2023-09-27T05:22:07.247Z,7.93
2023-09-27T05:24:39.874Z,7.65
2023-09-27T05:27:08.640Z,7.10
2023-09-27T05:29:35.964Z,7.18
2023-09-27T05:32:03.608Z,7.75
2023-09-27T05:34:32.341Z,7.20
2023-09-27T05:36:59.219Z,7.67
2023-09-27T05:39:26.330Z,6.95
2023-09-27T05:41:53.169Z,7.00
2023-09-27T05:44:20.050Z,7.03
2023-09-27T05:46:47.205Z,5.90
2023-09-27T05:49:16.216Z,6.50
2023-09-27T05:51:43.380Z,7.27
2023-09-27T05:54:10.405Z,6.72
2023-09-27T05:56:40.170Z,7.03
2023-09-27T06:04:04.302Z,6.60
2023-09-27T06:06:31.271Z,6.53
2023-09-27T06:08:58.241Z,6.40
2023-09-27T06:11:25.204Z,6.65
2023-09-27T06:13:52.102Z,6.30
2023-09-27T06:16:18.893Z,6.60
2023-09-27T06:21:13.319Z,6.60
2023-09-27T06:23:41.036Z,6.60
2023-09-27T06:26:08.733Z,6.10
2023-09-27T06:28:39.141Z,6.35
2023-09-27T06:31:09.137Z,6.43
2023-09-27T06:33:40.552Z,5.97
2023-09-27T06:36:12.007Z,6.22
2023-09-27T06:38:39.326Z,6.45
2023-09-27T06:41:06.407Z,6.60
2023-09-27T06:43:33.437Z,6.78
2023-09-27T06:46:02.744Z,5.93
2023-09-27T06:48:30.359Z,6.40
2023-09-27T06:50:57.426Z,6.55
2023-09-27T06:53:27.452Z,6.20
2023-09-27T06:55:56.890Z,5.90
2023-09-27T06:58:26.578Z,6.18
2023-09-27T07:03:26.420Z,5.85
2023-09-27T07:05:53.893Z,6.13
2023-09-27T07:08:21.844Z,5.97
2023-09-27T07:10:48.724Z,6.25
2023-09-27T07:13:16.287Z,6.20
2023-09-27T07:15:47.267Z,6.22
2023-09-27T07:18:14.978Z,6.32
2023-09-27T07:20:43.276Z,5.88
2023-09-27T07:23:16.187Z,6.38
2023-09-27T07:25:44.413Z,6.70
2023-09-27T07:28:12.049Z,7.30
2023-09-27T07:30:39.046Z,7.43
2023-09-27T07:33:12.680Z,6.72
2023-09-27T07:35:44.375Z,6.85
2023-09-27T07:38:15.374Z,7.00
2023-09-27T07:40:46.880Z,7.10
2023-09-27T07:43:13.684Z,7.32
2023-09-27T07:45:43.444Z,8.10
2023-09-27T07:48:10.778Z,8.10
2023-09-27T07:50:39.489Z,7.15
2023-09-27T07:53:08.114Z,7.60
2023-09-27T07:55:47.744Z,7.90
2023-09-27T08:00:42.147Z,8.13
2023-09-27T08:03:09.528Z,7.93
2023-09-27T08:05:44.851Z,8.30
2023-09-27T08:08:12.962Z,8.60
2023-09-27T08:10:46.845Z,8.63
2023-09-27T08:13:15.078Z,8.10
2023-09-27T08:15:42.938Z,8.57
2023-09-27T08:18:09.812Z,8.50
2023-09-27T08:20:36.735Z,9.10
2023-09-27T08:23:04.310Z,9.45
2023-09-27T08:25:31.608Z,8.50
2023-09-27T08:27:58.433Z,9.20
2023-09-27T08:30:25.308Z,9.27
2023-09-27T08:32:52.907Z,9.63
2023-09-27T08:35:20.154Z,8.93
2023-09-27T08:37:47.264Z,8.98
2023-09-27T08:40:14.817Z,8.40
2023-09-27T08:42:43.521Z,8.60
2023-09-27T08:45:16.178Z,10.13
2023-09-27T08:47:45.827Z,8.02
2023-09-27T08:52:46.724Z,8.50
2023-09-27T08:55:16.917Z,9.55
2023-09-27T08:57:52.456Z,9.55
2023-09-27T09:00:27.981Z,9.60
2023-09-27T09:03:00.223Z,9.65
2023-09-27T09:05:30.176Z,10.07
2023-09-27T09:07:58.893Z,11.05
2023-09-27T09:10:25.893Z,10.32
2023-09-27T09:12:53.350Z,9.55
2023-09-27T09:15:41.530Z,10.05
2023-09-27T09:18:16.459Z,10.23
2023-09-27T09:20:52.721Z,9.20
2023-09-27T09:23:34.894Z,9.65
2023-09-27T09:26:07.516Z,9.82
2023-09-27T09:28:36.804Z,10.45
2023-09-27T09:31:03.731Z,9.18
2023-09-27T09:33:31.473Z,9.30
2023-09-27T09:35:58.484Z,9.23
2023-09-27T09:38:34.718Z,10.52
2023-09-27T09:41:03.269Z,10.02
2023-09-27T09:43:35.112Z,9.45
2023-09-27T09:46:05.753Z,10.15
2023-09-27T09:48:37.082Z,9.43
2023-09-27T09:51:08.606Z,9.60
2023-09-27T09:53:43.031Z,8.43
2023-09-27T09:58:48.991Z,8.40
2023-09-27T10:01:22.870Z,8.13
2023-09-27T10:03:53.147Z,8.30
2023-09-27T10:06:29.699Z,9.05
2023-09-27T10:09:15.830Z,7.30
2023-09-27T10:11:46.835Z,7.90
2023-09-27T10:14:17.051Z,6.85
2023-09-27T10:16:44.734Z,7.22
2023-09-27T10:19:11.916Z,7.10
2023-09-27T10:22:05.410Z,7.20
2023-09-27T10:24:42.448Z,6.47
2023-09-27T10:27:09.230Z,6.50
2023-09-27T10:29:57.994Z,5.70
2023-09-27T10:32:25.123Z,7.10
2023-09-27T10:34:53.041Z,8.48
2023-09-27T10:37:58.544Z,8.98
2023-09-27T10:40:26.409Z,9.13
2023-09-27T10:42:54.056Z,9.80
2023-09-27T10:45:20.904Z,10.20
2023-09-27T10:47:50.994Z,8.90
2023-09-27T10:50:30.222Z,9.07
2023-09-27T10:52:58.422Z,7.28
2023-09-27T10:55:25.181Z,6.80
2023-09-27T10:57:52.244Z,6.90
2023-09-27T11:00:22.517Z,6.22
2023-09-27T11:02:49.617Z,6.88
2023-09-27T11:05:24.754Z,6.85
2023-09-27T11:07:52.262Z,6.65
2023-09-27T11:10:39.597Z,5.65
2023-09-27T11:13:14.177Z,5.47
2023-09-27T11:15:42.728Z,5.57
2023-09-27T11:18:11.625Z,5.07
2023-09-27T11:20:41.290Z,5.35
2023-09-27T11:23:08.569Z,5.30
2023-09-27T11:25:43.705Z,4.40
2023-09-27T11:28:16.329Z,4.80
2023-09-27T11:30:43.972Z,4.57
2023-09-27T11:33:14.594Z,4.45
2023-09-27T11:35:48.778Z,4.53
2023-09-27T11:38:15.539Z,4.47
2023-09-27T11:40:44.476Z,4.15
2023-09-27T11:43:13.748Z,3.75
2023-09-27T11:45:50.638Z,3.83
2023-09-27T11:48:31.572Z,4.30
2023-09-27T11:50:59.806Z,4.32
2023-09-27T11:53:26.719Z,4.40
2023-09-27T11:55:55.573Z,4.22
2023-09-27T11:58:23.980Z,4.07
2023-09-27T12:00:50.994Z,3.90
2023-09-27T12:03:18.039Z,3.95
2023-09-27T12:05:46.151Z,3.60
2023-09-27T12:08:13.222Z,4.43
2023-09-27T12:10:40.302Z,4.20
2023-09-27T12:13:07.240Z,4.00
2023-09-27T12:15:34.301Z,3.40
2023-09-27T12:18:01.158Z,3.70
2023-09-27T12:20:39.697Z,3.92
2023-09-27T12:23:10.830Z,3.80
2023-09-27T12:25:38.612Z,4.53
2023-09-27T12:28:05.987Z,3.90
2023-09-27T12:30:32.824Z,3.97
2023-09-27T12:32:59.944Z,4.15
2023-09-27T12:35:27.528Z,3.83
2023-09-27T12:37:54.601Z,3.65
2023-09-27T12:40:21.280Z,3.55
2023-09-27T12:42:47.995Z,4.28
2023-09-27T12:45:14.973Z,4.00
2023-09-27T12:47:42.937Z,3.80
2023-09-27T12:50:10.100Z,4.40
2023-09-27T12:52:36.931Z,3.88
2023-09-27T12:55:06.395Z,3.97
2023-09-27T12:57:33.356Z,3.50
2023-09-27T13:00:00.331Z,3.95
2023-09-27T13:02:28.253Z,4.28
2023-09-27T13:04:55.310Z,4.18
2023-09-27T13:07:22.061Z,3.83
2023-09-27T13:09:50.127Z,4.22
2023-09-27T13:12:17.089Z,3.83
2023-09-27T13:14:44.012Z,4.60
2023-09-27T13:17:11.316Z,4.32
2023-09-27T13:19:38.334Z,4.80
2023-09-27T13:22:05.154Z,5.15
2023-09-27T13:24:32.756Z,4.18
2023-09-27T13:27:00.250Z,3.88
2023-09-27T13:29:27.374Z,4.05
2023-09-27T13:31:54.192Z,4.47
2023-09-27T13:34:21.120Z,4.20
2023-09-27T13:36:48.006Z,4.13
2023-09-27T13:39:26.309Z,3.78
2023-09-27T13:41:53.290Z,3.90
2023-09-27T13:44:20.194Z,3.90
2023-09-27T13:46:47.240Z,3.78
2023-09-27T13:49:13.991Z,3.60
2023-09-27T13:51:41.433Z,3.80
2023-09-27T13:54:09.156Z,4.00
2023-09-27T13:56:38.021Z,3.72
2023-09-27T13:59:06.896Z,4.30
2023-09-27T14:01:33.877Z,4.18
2023-09-27T14:04:02.375Z,4.00
2023-09-27T14:06:29.649Z,3.70
2023-09-27T14:08:56.773Z,3.50
2023-09-27T14:11:24.065Z,3.95
2023-09-27T14:13:50.921Z,4.00
2023-09-27T14:16:18.091Z,3.90
2023-09-27T14:18:45.702Z,3.95
2023-09-27T14:21:14.586Z,3.78
2023-09-27T14:23:43.746Z,3.88
2023-09-27T14:26:12.657Z,4.18
2023-09-27T14:28:40.153Z,3.10
2023-09-27T14:31:07.135Z,3.65
2023-09-27T14:33:35.081Z,3.95
2023-09-27T14:36:05.454Z,3.58
2023-09-27T14:38:36.325Z,4.00
2023-09-27T14:41:12.291Z,3.95
2023-09-27T14:43:39.691Z,3.88
2023-09-27T14:46:11.709Z,3.88
2023-09-27T14:48:39.726Z,4.28
2023-09-27T14:51:06.953Z,3.65
2023-09-27T14:53:33.721Z,3.58
2023-09-27T14:56:07.805Z,3.20
2023-09-27T14:58:35.475Z,3.78
2023-09-27T15:01:05.569Z,4.20
2023-09-27T15:03:33.461Z,4.00
2023-09-27T15:06:04.376Z,4.00
2023-09-27T15:08:31.733Z,4.05
2023-09-27T15:10:58.671Z,3.53
2023-09-27T15:13:25.672Z,3.50
2023-09-27T15:15:52.458Z,3.35
2023-09-27T15:18:21.941Z,3.50
2023-09-27T15:20:50.668Z,3.63
2023-09-27T15:23:17.480Z,3.55
2023-09-27T15:25:44.476Z,4.13
2023-09-27T15:28:11.217Z,3.53
2023-09-27T15:30:38.115Z,3.70
2023-09-27T15:33:05.196Z,3.20
2023-09-27T15:35:31.940Z,3.13
2023-09-27T15:37:59.673Z,3.42
2023-09-27T15:40:26.536Z,4.07
2023-09-27T15:42:55.962Z,3.58
2023-09-27T15:47:50.080Z,3.70
2023-09-27T15:50:17.215Z,3.55
2023-09-27T15:52:44.086Z,3.65
2023-09-27T15:55:12.050Z,3.50
2023-09-27T15:57:39.224Z,4.10
2023-09-27T16:00:12.554Z,4.40
2023-09-27T16:02:40.119Z,5.78
2023-09-27T16:05:12.045Z,6.30
2023-09-27T16:07:40.436Z,4.90
2023-09-27T16:10:10.103Z,5.35
2023-09-27T16:12:37.813Z,4.57
2023-09-27T16:15:09.062Z,4.75
2023-09-27T16:17:38.343Z,4.70
2023-09-27T16:20:08.152Z,5.22
2023-09-27T16:22:35.136Z,5.53
2023-09-27T16:25:04.982Z,5.47
2023-09-27T16:27:31.932Z,5.10
2023-09-27T16:29:58.760Z,4.57
2023-09-27T16:32:26.165Z,6.03
2023-09-27T16:34:53.017Z,5.13
2023-09-27T16:37:19.777Z,6.00
2023-09-27T16:39:46.773Z,5.65
2023-09-27T16:42:13.567Z,6.10
2023-09-27T16:44:40.249Z,5.95
2023-09-27T16:47:07.377Z,6.10
2023-09-27T16:49:34.528Z,5.90
2023-09-27T16:52:02.202Z,5.65
2023-09-27T16:54:28.982Z,5.85
2023-09-27T16:56:55.783Z,6.38
2023-09-27T16:59:22.429Z,5.90
2023-09-27T17:01:49.353Z,5.72
2023-09-27T17:04:16.089Z,6.07
2023-09-27T17:06:45.723Z,5.78
2023-09-27T17:11:39.349Z,6.13
2023-09-27T17:14:06.118Z,5.15
2023-09-27T17:16:33.082Z,5.38
2023-09-27T17:19:02.040Z,5.45
2023-09-27T17:21:28.781Z,5.30
2023-09-27T17:23:56.317Z,5.00
2023-09-27T17:26:23.350Z,5.35
2023-09-27T17:28:51.421Z,5.82
2023-09-27T17:31:18.921Z,5.70
2023-09-27T17:33:45.985Z,5.97
2023-09-27T17:36:14.987Z,6.60
2023-09-27T17:38:41.983Z,5.20
2023-09-27T17:41:08.941Z,5.18
2023-09-27T17:43:35.817Z,5.60
2023-09-27T17:46:02.793Z,7.95
2023-09-27T17:48:29.750Z,20.73
2023-09-27T17:50:56.626Z,38.97
2023-09-27T17:53:23.439Z,70.90
2023-09-27T17:55:50.211Z,69.53
2023-09-27T17:58:17.016Z,71.68
2023-09-27T18:00:44.870Z,49.55
2023-09-27T18:03:11.789Z,23.40
2023-09-27T18:05:38.652Z,9.25
2023-09-27T18:08:06.582Z,9.88
2023-09-27T18:10:33.392Z,11.52
2023-09-27T18:13:00.178Z,8.88
2023-09-27T18:15:28.657Z,7.72
2023-09-27T18:17:56.144Z,5.93
2023-09-27T18:20:23.670Z,5.90
2023-09-27T18:22:50.874Z,6.22
2023-09-27T18:25:17.817Z,6.05
2023-09-27T18:27:45.030Z,5.80
2023-09-27T18:30:12.182Z,5.70
2023-09-27T18:32:39.105Z,5.82
2023-09-27T18:35:06.545Z,4.88
2023-09-27T18:37:34.224Z,5.57
2023-09-27T18:40:01.114Z,5.38
2023-09-27T18:42:28.226Z,5.70
2023-09-27T18:44:55.242Z,5.85
2023-09-27T18:47:22.373Z,6.07
2023-09-27T18:49:49.560Z,7.13
2023-09-27T18:52:16.355Z,8.02
2023-09-27T18:54:43.161Z,7.70
2023-09-27T18:57:09.993Z,7.50
2023-09-27T18:59:36.834Z,6.90
2023-09-27T19:02:03.783Z,5.78
2023-09-27T19:04:30.768Z,5.53
2023-09-27T19:06:58.134Z,5.85
2023-09-27T19:09:24.989Z,5.65
2023-09-27T19:11:54.298Z,5.85
2023-09-27T19:14:21.302Z,5.88
2023-09-27T19:16:48.168Z,5.85
2023-09-27T19:19:15.651Z,5.93
2023-09-27T19:21:42.393Z,5.97
2023-09-27T19:24:11.005Z,5.63
2023-09-27T19:26:39.009Z,5.70
2023-09-27T19:29:05.781Z,5.60
2023-09-27T19:31:32.757Z,5.72
2023-09-27T19:33:59.805Z,6.55
2023-09-27T19:36:26.737Z,5.80
2023-09-27T19:38:53.556Z,5.97
2023-09-27T19:41:20.850Z,6.10
2023-09-27T19:43:47.845Z,6.13
2023-09-27T19:46:19.958Z,6.35
2023-09-27T19:48:47.226Z,5.63
2023-09-27T19:51:24.635Z,5.90
2023-09-27T19:53:53.036Z,5.75
2023-09-27T19:56:20.469Z,5.72
2023-09-27T19:58:47.615Z,5.75
2023-09-27T20:01:32.849Z,5.88
2023-09-27T20:04:00.119Z,6.50
2023-09-27T20:06:28.664Z,5.95
2023-09-27T20:08:55.605Z,6.15
2023-09-27T20:11:22.323Z,5.70
2023-09-27T20:13:49.975Z,6.18
2023-09-27T20:16:16.798Z,5.85
2023-09-27T20:18:43.564Z,5.85
2023-09-27T20:21:10.552Z,6.30
2023-09-27T20:23:39.215Z,5.75
2023-09-27T20:26:06.548Z,6.25
2023-09-27T20:28:33.552Z,5.65
2023-09-27T20:31:00.372Z,5.82
2023-09-27T20:33:27.304Z,6.10
2023-09-27T20:35:54.603Z,5.97
2023-09-27T20:38:21.420Z,6.50
2023-09-27T20:40:48.327Z,6.43
2023-09-27T20:43:15.066Z,6.68
2023-09-27T20:45:41.913Z,6.32
2023-09-27T20:48:08.654Z,6.13
2023-09-27T20:50:35.429Z,6.40
2023-09-27T20:53:02.174Z,6.65
2023-09-27T20:55:29.252Z,5.57
2023-09-27T20:57:56.138Z,5.72
2023-09-27T21:00:23.801Z,6.18
2023-09-27T21:02:50.665Z,5.93
2023-09-27T21:05:17.561Z,6.57
2023-09-27T21:07:44.507Z,6.10
2023-09-27T21:10:11.274Z,6.22
2023-09-27T21:12:38.108Z,6.30
2023-09-27T21:15:05.620Z,6.45
2023-09-27T21:17:32.368Z,5.82
2023-09-27T21:19:59.330Z,5.90
2023-09-27T21:22:26.073Z,6.30
2023-09-27T21:24:52.967Z,6.57
2023-09-27T21:27:19.862Z,6.03
2023-09-27T21:29:46.911Z,5.95
2023-09-27T21:32:14.423Z,5.88
2023-09-27T21:34:41.842Z,5.95
2023-09-27T21:37:08.792Z,6.07
2023-09-27T21:39:36.582Z,5.70
2023-09-27T21:42:03.527Z,6.07
2023-09-27T21:44:31.371Z,6.43
2023-09-27T21:46:58.193Z,5.40
2023-09-27T21:49:25.861Z,5.97
2023-09-27T21:51:52.774Z,5.20
2023-09-27T21:54:19.957Z,6.15
2023-09-27T21:56:46.864Z,5.85
2023-09-27T21:59:13.852Z,6.15
2023-09-27T22:01:40.781Z,6.10
2023-09-27T22:04:07.727Z,5.47
2023-09-27T22:06:35.221Z,5.60
2023-09-27T22:09:05.323Z,5.82
2023-09-27T22:11:32.548Z,6.50
2023-09-27T22:14:05.881Z,6.03
2023-09-27T22:16:34.166Z,6.13
2023-09-27T22:19:12.719Z,6.85
2023-09-27T22:21:44.069Z,6.85
2023-09-27T22:24:14.796Z,6.28
2023-09-27T22:26:46.844Z,6.10
2023-09-27T22:29:15.447Z,6.05
2023-09-27T22:31:43.715Z,6.60
2023-09-27T22:34:12.128Z,5.95
2023-09-27T22:36:47.597Z,7.10
2023-09-27T22:39:17.978Z,5.60
2023-09-27T22:41:46.706Z,6.20
2023-09-27T22:44:24.067Z,6.60
2023-09-27T22:46:53.441Z,6.70
2023-09-27T22:49:22.705Z,6.43
2023-09-27T22:51:50.338Z,6.10
2023-09-27T22:54:21.860Z,5.40
2023-09-27T22:56:50.074Z,5.60
2023-09-27T22:59:18.304Z,6.20
2023-09-27T23:01:47.530Z,6.13
2023-09-27T23:04:17.213Z,6.63
2023-09-27T23:06:46.265Z,6.07
2023-09-27T23:09:25.782Z,6.47
2023-09-27T23:12:12.824Z,6.50
2023-09-27T23:14:59.739Z,6.15
2023-09-27T23:17:31.294Z,6.10
2023-09-27T23:19:58.186Z,5.55
2023-09-27T23:22:27.730Z,6.00
2023-09-27T23:25:14.994Z,5.75
2023-09-27T23:27:42.432Z,6.60
2023-09-27T23:30:14.319Z,6.05
2023-09-27T23:32:41.383Z,5.88
2023-09-27T23:35:10.785Z,6.00
2023-09-27T23:37:38.205Z,6.10
2023-09-27T23:40:14.830Z,5.80
2023-09-27T23:42:48.214Z,5.88
2023-09-27T23:45:15.692Z,6.30
2023-09-27T23:47:50.862Z,5.78
2023-09-27T23:50:18.461Z,6.80
2023-09-27T23:52:47.666Z,5.30
2023-09-27T23:55:18.569Z,5.72
2023-09-27T23:57:49.295Z,6.00
